sensor_id;sensor_type;location;lat;lon;timestamp;P1;durP1;ratioP1;P2;durP2;ratioP2
55776;SDS011;54079;44.540;18.784;2023-09-07T00:00:14;3.22;;;2.03;;
55776;SDS011;54079;44.540;18.784;2023-09-07T00:02:41;2.17;;;1.98;;
55776;SDS011;54079;44.540;18.784;2023-09-07T00:05:07;4.88;;;3.10;;
55776;SDS011;54079;44.540;18.784;2023-09-07T00:07:34;2.47;;;2.28;;
55776;SDS011;54079;44.540;18.784;2023-09-07T00:10:00;3.13;;;1.73;;
55776;SDS011;54079;44.540;18.784;2023-09-07T00:12:27;2.58;;;2.38;;
55776;SDS011;54079;44.540;18.784;2023-09-07T00:14:53;4.00;;;2.33;;
55776;SDS011;54079;44.540;18.784;2023-09-07T00:17:20;2.33;;;2.08;;
55776;SDS011;54079;44.540;18.784;2023-09-07T00:19:46;3.72;;;2.67;;
55776;SDS011;54079;44.540;18.784;2023-09-07T00:22:14;3.10;;;2.80;;
55776;SDS011;54079;44.540;18.784;2023-09-07T00:24:41;2.67;;;2.47;;
55776;SDS011;54079;44.540;18.784;2023-09-07T00:27:07;2.40;;;2.20;;
55776;SDS011;54079;44.540;18.784;2023-09-07T00:29:34;2.47;;;2.25;;
55776;SDS011;54079;44.540;18.784;2023-09-07T00:32:00;2.08;;;1.83;;
55776;SDS011;54079;44.540;18.784;2023-09-07T00:34:27;2.28;;;2.08;;
55776;SDS011;54079;44.540;18.784;2023-09-07T00:36:52;2.72;;;2.42;;
55776;SDS011;54079;44.540;18.784;2023-09-07T00:39:18;2.25;;;2.05;;
55776;SDS011;54079;44.540;18.784;2023-09-07T00:41:44;5.38;;;2.30;;
55776;SDS011;54079;44.540;18.784;2023-09-07T00:44:10;3.95;;;2.45;;
55776;SDS011;54079;44.540;18.784;2023-09-07T00:46:36;3.30;;;2.92;;
55776;SDS011;54079;44.540;18.784;2023-09-07T00:49:02;2.78;;;2.50;;
55776;SDS011;54079;44.540;18.784;2023-09-07T00:51:29;2.03;;;1.83;;
55776;SDS011;54079;44.540;18.784;2023-09-07T00:53:56;2.30;;;2.10;;
55776;SDS011;54079;44.540;18.784;2023-09-07T00:56:24;2.33;;;2.10;;
55776;SDS011;54079;44.540;18.784;2023-09-07T00:58:53;2.30;;;2.05;;
55776;SDS011;54079;44.540;18.784;2023-09-07T01:01:22;2.33;;;2.13;;
55776;SDS011;54079;44.540;18.784;2023-09-07T01:03:49;2.88;;;2.60;;
55776;SDS011;54079;44.540;18.784;2023-09-07T01:06:17;3.00;;;2.80;;
55776;SDS011;54079;44.540;18.784;2023-09-07T01:08:51;2.10;;;2.00;;
55776;SDS011;54079;44.540;18.784;2023-09-07T01:11:21;3.50;;;1.80;;
55776;SDS011;54079;44.540;18.784;2023-09-07T01:13:51;3.00;;;1.80;;
55776;SDS011;54079;44.540;18.784;2023-09-07T01:16:19;2.05;;;1.90;;
55776;SDS011;54079;44.540;18.784;2023-09-07T01:18:46;2.70;;;2.50;;
55776;SDS011;54079;44.540;18.784;2023-09-07T01:21:13;2.13;;;2.00;;
55776;SDS011;54079;44.540;18.784;2023-09-07T01:23:42;3.10;;;2.63;;
55776;SDS011;54079;44.540;18.784;2023-09-07T01:26:10;2.42;;;2.20;;
55776;SDS011;54079;44.540;18.784;2023-09-07T01:28:36;2.45;;;2.25;;
55776;SDS011;54079;44.540;18.784;2023-09-07T01:31:03;2.55;;;2.20;;
55776;SDS011;54079;44.540;18.784;2023-09-07T01:33:29;5.43;;;2.90;;
55776;SDS011;54079;44.540;18.784;2023-09-07T01:35:56;3.50;;;2.25;;
55776;SDS011;54079;44.540;18.784;2023-09-07T01:38:22;2.17;;;1.98;;
55776;SDS011;54079;44.540;18.784;2023-09-07T01:40:48;2.88;;;2.60;;
55776;SDS011;54079;44.540;18.784;2023-09-07T01:43:14;2.40;;;2.15;;
55776;SDS011;54079;44.540;18.784;2023-09-07T01:45:40;3.33;;;3.03;;
55776;SDS011;54079;44.540;18.784;2023-09-07T01:48:08;2.90;;;2.38;;
55776;SDS011;54079;44.540;18.784;2023-09-07T01:50:35;2.60;;;2.40;;
55776;SDS011;54079;44.540;18.784;2023-09-07T01:53:01;2.72;;;2.53;;
55776;SDS011;54079;44.540;18.784;2023-09-07T01:55:33;3.38;;;3.08;;
55776;SDS011;54079;44.540;18.784;2023-09-07T01:57:59;2.47;;;2.28;;
55776;SDS011;54079;44.540;18.784;2023-09-07T02:00:25;2.10;;;1.90;;
55776;SDS011;54079;44.540;18.784;2023-09-07T02:02:51;2.15;;;1.95;;
55776;SDS011;54079;44.540;18.784;2023-09-07T02:05:17;2.22;;;2.03;;
55776;SDS011;54079;44.540;18.784;2023-09-07T02:07:43;3.20;;;2.88;;
55776;SDS011;54079;44.540;18.784;2023-09-07T02:10:09;2.60;;;2.40;;
55776;SDS011;54079;44.540;18.784;2023-09-07T02:12:35;2.95;;;2.63;;
55776;SDS011;54079;44.540;18.784;2023-09-07T02:15:02;2.25;;;2.05;;
55776;SDS011;54079;44.540;18.784;2023-09-07T02:17:29;2.30;;;2.10;;
55776;SDS011;54079;44.540;18.784;2023-09-07T02:19:55;2.60;;;2.40;;
55776;SDS011;54079;44.540;18.784;2023-09-07T02:22:21;4.57;;;3.40;;
55776;SDS011;54079;44.540;18.784;2023-09-07T02:24:47;2.67;;;2.47;;
55776;SDS011;54079;44.540;18.784;2023-09-07T02:27:13;2.80;;;2.60;;
55776;SDS011;54079;44.540;18.784;2023-09-07T02:29:39;2.80;;;2.60;;
55776;SDS011;54079;44.540;18.784;2023-09-07T02:32:05;3.13;;;2.83;;
55776;SDS011;54079;44.540;18.784;2023-09-07T02:34:32;3.30;;;2.70;;
55776;SDS011;54079;44.540;18.784;2023-09-07T02:37:01;4.63;;;2.65;;
55776;SDS011;54079;44.540;18.784;2023-09-07T02:39:28;2.58;;;2.38;;
55776;SDS011;54079;44.540;18.784;2023-09-07T02:41:54;2.83;;;2.63;;
55776;SDS011;54079;44.540;18.784;2023-09-07T02:44:20;2.45;;;2.25;;
55776;SDS011;54079;44.540;18.784;2023-09-07T02:46:46;2.80;;;2.60;;
55776;SDS011;54079;44.540;18.784;2023-09-07T02:49:12;2.50;;;2.30;;
55776;SDS011;54079;44.540;18.784;2023-09-07T02:51:38;3.05;;;2.50;;
55776;SDS011;54079;44.540;18.784;2023-09-07T02:54:04;2.88;;;2.67;;
55776;SDS011;54079;44.540;18.784;2023-09-07T02:56:30;3.97;;;3.42;;
55776;SDS011;54079;44.540;18.784;2023-09-07T02:58:56;2.95;;;2.70;;
55776;SDS011;54079;44.540;18.784;2023-09-07T03:01:22;2.67;;;2.45;;
55776;SDS011;54079;44.540;18.784;2023-09-07T03:03:48;2.85;;;2.00;;
55776;SDS011;54079;44.540;18.784;2023-09-07T03:06:14;2.80;;;2.60;;
55776;SDS011;54079;44.540;18.784;2023-09-07T03:08:43;3.20;;;2.88;;
55776;SDS011;54079;44.540;18.784;2023-09-07T03:11:10;3.67;;;2.53;;
55776;SDS011;54079;44.540;18.784;2023-09-07T03:13:36;3.35;;;2.63;;
55776;SDS011;54079;44.540;18.784;2023-09-07T03:16:03;2.40;;;2.20;;
55776;SDS011;54079;44.540;18.784;2023-09-07T03:18:30;2.50;;;2.30;;
55776;SDS011;54079;44.540;18.784;2023-09-07T03:20:58;2.83;;;2.50;;
55776;SDS011;54079;44.540;18.784;2023-09-07T03:23:26;3.67;;;3.38;;
55776;SDS011;54079;44.540;18.784;2023-09-07T03:25:53;2.78;;;2.58;;
55776;SDS011;54079;44.540;18.784;2023-09-07T03:28:19;5.68;;;3.45;;
55776;SDS011;54079;44.540;18.784;2023-09-07T03:30:45;3.25;;;2.95;;
55776;SDS011;54079;44.540;18.784;2023-09-07T03:33:11;2.80;;;2.50;;
55776;SDS011;54079;44.540;18.784;2023-09-07T03:35:37;3.78;;;3.45;;
55776;SDS011;54079;44.540;18.784;2023-09-07T03:38:03;3.20;;;2.90;;
55776;SDS011;54079;44.540;18.784;2023-09-07T03:40:29;3.00;;;2.70;;
55776;SDS011;54079;44.540;18.784;2023-09-07T03:42:55;2.30;;;2.10;;
55776;SDS011;54079;44.540;18.784;2023-09-07T03:45:21;4.50;;;4.10;;
55776;SDS011;54079;44.540;18.784;2023-09-07T03:47:47;4.50;;;4.10;;
55776;SDS011;54079;44.540;18.784;2023-09-07T03:50:13;3.25;;;2.95;;
55776;SDS011;54079;44.540;18.784;2023-09-07T03:52:39;4.32;;;3.78;;
55776;SDS011;54079;44.540;18.784;2023-09-07T03:55:05;3.38;;;3.08;;
55776;SDS011;54079;44.540;18.784;2023-09-07T03:57:31;2.63;;;2.42;;
55776;SDS011;54079;44.540;18.784;2023-09-07T03:59:58;3.30;;;3.00;;
55776;SDS011;54079;44.540;18.784;2023-09-07T04:02:24;3.72;;;3.17;;
55776;SDS011;54079;44.540;18.784;2023-09-07T04:04:51;4.13;;;3.72;;
55776;SDS011;54079;44.540;18.784;2023-09-07T04:07:18;3.33;;;3.03;;
55776;SDS011;54079;44.540;18.784;2023-09-07T04:09:44;3.60;;;3.30;;
55776;SDS011;54079;44.540;18.784;2023-09-07T04:12:11;4.38;;;3.90;;
55776;SDS011;54079;44.540;18.784;2023-09-07T04:14:37;3.47;;;3.17;;
55776;SDS011;54079;44.540;18.784;2023-09-07T04:17:03;3.70;;;3.40;;
55776;SDS011;54079;44.540;18.784;2023-09-07T04:19:30;3.75;;;2.58;;
55776;SDS011;54079;44.540;18.784;2023-09-07T04:21:59;2.47;;;2.28;;
55776;SDS011;54079;44.540;18.784;2023-09-07T04:24:26;3.17;;;2.90;;
55776;SDS011;54079;44.540;18.784;2023-09-07T04:26:58;5.25;;;3.67;;
55776;SDS011;54079;44.540;18.784;2023-09-07T04:29:26;4.23;;;3.87;;
55776;SDS011;54079;44.540;18.784;2023-09-07T04:31:52;5.38;;;4.07;;
55776;SDS011;54079;44.540;18.784;2023-09-07T04:34:18;3.55;;;3.25;;
55776;SDS011;54079;44.540;18.784;2023-09-07T04:36:43;3.42;;;3.13;;
55776;SDS011;54079;44.540;18.784;2023-09-07T04:39:10;3.13;;;2.88;;
55776;SDS011;54079;44.540;18.784;2023-09-07T04:41:36;3.85;;;3.50;;
55776;SDS011;54079;44.540;18.784;2023-09-07T04:44:02;4.13;;;3.72;;
55776;SDS011;54079;44.540;18.784;2023-09-07T04:46:28;3.95;;;3.55;;
55776;SDS011;54079;44.540;18.784;2023-09-07T04:48:54;3.50;;;3.30;;
55776;SDS011;54079;44.540;18.784;2023-09-07T04:51:20;3.72;;;3.38;;
55776;SDS011;54079;44.540;18.784;2023-09-07T04:53:47;4.10;;;3.80;;
55776;SDS011;54079;44.540;18.784;2023-09-07T04:56:13;3.83;;;3.53;;
55776;SDS011;54079;44.540;18.784;2023-09-07T04:58:39;4.07;;;3.63;;
55776;SDS011;54079;44.540;18.784;2023-09-07T05:01:06;4.88;;;4.38;;
55776;SDS011;54079;44.540;18.784;2023-09-07T05:03:34;4.05;;;3.70;;
55776;SDS011;54079;44.540;18.784;2023-09-07T05:06:01;4.72;;;4.22;;
55776;SDS011;54079;44.540;18.784;2023-09-07T05:08:30;3.53;;;3.22;;
55776;SDS011;54079;44.540;18.784;2023-09-07T05:10:57;3.38;;;3.08;;
55776;SDS011;54079;44.540;18.784;2023-09-07T05:13:25;2.78;;;2.58;;
55776;SDS011;54079;44.540;18.784;2023-09-07T05:15:52;3.63;;;3.33;;
55776;SDS011;54079;44.540;18.784;2023-09-07T05:18:19;3.50;;;3.20;;
55776;SDS011;54079;44.540;18.784;2023-09-07T05:20:46;5.85;;;5.35;;
55776;SDS011;54079;44.540;18.784;2023-09-07T05:23:17;4.80;;;4.30;;
55776;SDS011;54079;44.540;18.784;2023-09-07T05:25:50;4.70;;;4.10;;
55776;SDS011;54079;44.540;18.784;2023-09-07T05:28:17;3.30;;;3.00;;
55776;SDS011;54079;44.540;18.784;2023-09-07T05:30:44;3.65;;;3.35;;
55776;SDS011;54079;44.540;18.784;2023-09-07T05:33:11;3.10;;;2.80;;
55776;SDS011;54079;44.540;18.784;2023-09-07T05:35:39;4.10;;;3.40;;
55776;SDS011;54079;44.540;18.784;2023-09-07T05:38:06;3.30;;;3.05;;
55776;SDS011;54079;44.540;18.784;2023-09-07T05:40:34;3.10;;;2.90;;
55776;SDS011;54079;44.540;18.784;2023-09-07T05:43:04;2.90;;;2.70;;
55776;SDS011;54079;44.540;18.784;2023-09-07T05:45:31;3.33;;;2.97;;
55776;SDS011;54079;44.540;18.784;2023-09-07T05:47:59;3.47;;;3.20;;
55776;SDS011;54079;44.540;18.784;2023-09-07T05:50:25;3.30;;;3.00;;
55776;SDS011;54079;44.540;18.784;2023-09-07T05:52:51;3.80;;;3.03;;
55776;SDS011;54079;44.540;18.784;2023-09-07T05:55:17;3.05;;;2.85;;
55776;SDS011;54079;44.540;18.784;2023-09-07T05:57:43;3.75;;;3.45;;
55776;SDS011;54079;44.540;18.784;2023-09-07T06:00:09;3.83;;;3.53;;
55776;SDS011;54079;44.540;18.784;2023-09-07T06:02:36;3.50;;;3.20;;
55776;SDS011;54079;44.540;18.784;2023-09-07T06:05:02;3.30;;;3.00;;
55776;SDS011;54079;44.540;18.784;2023-09-07T06:07:28;4.35;;;3.95;;
55776;SDS011;54079;44.540;18.784;2023-09-07T06:09:54;4.55;;;4.15;;
55776;SDS011;54079;44.540;18.784;2023-09-07T06:12:20;4.18;;;3.72;;
55776;SDS011;54079;44.540;18.784;2023-09-07T06:14:46;6.07;;;5.32;;
55776;SDS011;54079;44.540;18.784;2023-09-07T06:17:12;5.97;;;5.40;;
55776;SDS011;54079;44.540;18.784;2023-09-07T06:19:38;5.32;;;4.93;;
55776;SDS011;54079;44.540;18.784;2023-09-07T06:22:05;5.18;;;4.18;;
55776;SDS011;54079;44.540;18.784;2023-09-07T06:24:31;4.18;;;3.88;;
55776;SDS011;54079;44.540;18.784;2023-09-07T06:26:57;4.65;;;4.22;;
55776;SDS011;54079;44.540;18.784;2023-09-07T06:29:23;5.43;;;4.03;;
55776;SDS011;54079;44.540;18.784;2023-09-07T06:31:49;3.90;;;3.50;;
55776;SDS011;54079;44.540;18.784;2023-09-07T06:34:15;4.10;;;3.80;;
55776;SDS011;54079;44.540;18.784;2023-09-07T06:36:41;4.97;;;4.10;;
55776;SDS011;54079;44.540;18.784;2023-09-07T06:39:07;4.40;;;4.00;;
55776;SDS011;54079;44.540;18.784;2023-09-07T06:41:34;4.68;;;4.05;;
55776;SDS011;54079;44.540;18.784;2023-09-07T06:44:00;5.70;;;5.20;;
55776;SDS011;54079;44.540;18.784;2023-09-07T06:46:26;4.88;;;4.30;;
55776;SDS011;54079;44.540;18.784;2023-09-07T06:48:52;4.30;;;3.90;;
55776;SDS011;54079;44.540;18.784;2023-09-07T06:51:18;5.18;;;4.70;;
55776;SDS011;54079;44.540;18.784;2023-09-07T06:53:44;6.22;;;5.35;;
55776;SDS011;54079;44.540;18.784;2023-09-07T06:56:10;5.10;;;4.68;;
55776;SDS011;54079;44.540;18.784;2023-09-07T06:58:36;4.78;;;4.38;;
55776;SDS011;54079;44.540;18.784;2023-09-07T07:01:02;5.82;;;5.32;;
55776;SDS011;54079;44.540;18.784;2023-09-07T07:03:29;6.32;;;5.70;;
55776;SDS011;54079;44.540;18.784;2023-09-07T07:05:56;6.63;;;5.13;;
55776;SDS011;54079;44.540;18.784;2023-09-07T07:08:22;5.05;;;4.53;;
55776;SDS011;54079;44.540;18.784;2023-09-07T07:10:49;5.90;;;5.40;;
55776;SDS011;54079;44.540;18.784;2023-09-07T07:13:15;9.88;;;4.88;;
55776;SDS011;54079;44.540;18.784;2023-09-07T07:15:41;6.20;;;5.25;;
55776;SDS011;54079;44.540;18.784;2023-09-07T07:18:07;4.75;;;4.35;;
55776;SDS011;54079;44.540;18.784;2023-09-07T07:20:41;6.00;;;4.40;;
55776;SDS011;54079;44.540;18.784;2023-09-07T07:23:09;7.32;;;6.65;;
55776;SDS011;54079;44.540;18.784;2023-09-07T07:25:35;6.47;;;4.85;;
55776;SDS011;54079;44.540;18.784;2023-09-07T07:28:02;5.28;;;4.68;;
55776;SDS011;54079;44.540;18.784;2023-09-07T07:30:39;3.78;;;3.47;;
55776;SDS011;54079;44.540;18.784;2023-09-07T07:33:06;3.60;;;3.40;;
55776;SDS011;54079;44.540;18.784;2023-09-07T07:35:32;4.03;;;3.72;;
55776;SDS011;54079;44.540;18.784;2023-09-07T07:38:00;4.85;;;4.55;;
55776;SDS011;54079;44.540;18.784;2023-09-07T07:40:26;4.60;;;4.30;;
55776;SDS011;54079;44.540;18.784;2023-09-07T07:42:55;4.97;;;4.47;;
55776;SDS011;54079;44.540;18.784;2023-09-07T07:45:21;4.50;;;4.20;;
55776;SDS011;54079;44.540;18.784;2023-09-07T07:47:50;5.38;;;4.90;;
55776;SDS011;54079;44.540;18.784;2023-09-07T07:50:17;4.20;;;3.90;;
55776;SDS011;54079;44.540;18.784;2023-09-07T07:52:43;4.88;;;4.40;;
55776;SDS011;54079;44.540;18.784;2023-09-07T07:55:10;4.40;;;4.10;;
55776;SDS011;54079;44.540;18.784;2023-09-07T07:57:37;4.38;;;3.97;;
55776;SDS011;54079;44.540;18.784;2023-09-07T08:00:04;6.38;;;5.78;;
55776;SDS011;54079;44.540;18.784;2023-09-07T08:02:31;6.13;;;5.65;;
55776;SDS011;54079;44.540;18.784;2023-09-07T08:04:57;5.47;;;4.97;;
55776;SDS011;54079;44.540;18.784;2023-09-07T08:07:24;5.88;;;5.38;;
55776;SDS011;54079;44.540;18.784;2023-09-07T08:09:50;5.68;;;5.28;;
55776;SDS011;54079;44.540;18.784;2023-09-07T08:12:16;4.28;;;3.97;;
55776;SDS011;54079;44.540;18.784;2023-09-07T08:14:42;5.72;;;5.22;;
55776;SDS011;54079;44.540;18.784;2023-09-07T08:17:08;6.15;;;5.63;;
55776;SDS011;54079;44.540;18.784;2023-09-07T08:19:34;5.07;;;4.78;;
55776;SDS011;54079;44.540;18.784;2023-09-07T08:22:00;4.47;;;4.18;;
55776;SDS011;54079;44.540;18.784;2023-09-07T08:24:28;4.72;;;4.43;;
55776;SDS011;54079;44.540;18.784;2023-09-07T08:26:55;4.10;;;3.90;;
55776;SDS011;54079;44.540;18.784;2023-09-07T08:29:23;5.35;;;4.85;;
55776;SDS011;54079;44.540;18.784;2023-09-07T08:31:52;8.32;;;7.63;;
55776;SDS011;54079;44.540;18.784;2023-09-07T08:34:18;6.95;;;5.40;;
55776;SDS011;54079;44.540;18.784;2023-09-07T08:36:46;6.38;;;5.68;;
55776;SDS011;54079;44.540;18.784;2023-09-07T08:39:12;6.78;;;6.28;;
55776;SDS011;54079;44.540;18.784;2023-09-07T08:41:42;5.00;;;4.70;;
55776;SDS011;54079;44.540;18.784;2023-09-07T08:44:09;4.40;;;4.10;;
55776;SDS011;54079;44.540;18.784;2023-09-07T08:46:36;7.25;;;6.53;;
55776;SDS011;54079;44.540;18.784;2023-09-07T08:49:03;10.57;;;9.68;;
55776;SDS011;54079;44.540;18.784;2023-09-07T08:51:29;5.40;;;5.07;;
55776;SDS011;54079;44.540;18.784;2023-09-07T08:53:57;4.82;;;4.53;;
55776;SDS011;54079;44.540;18.784;2023-09-07T08:56:23;3.10;;;2.90;;
55776;SDS011;54079;44.540;18.784;2023-09-07T08:58:50;2.92;;;2.72;;
55776;SDS011;54079;44.540;18.784;2023-09-07T09:01:16;4.75;;;4.40;;
55776;SDS011;54079;44.540;18.784;2023-09-07T09:03:43;3.30;;;3.10;;
55776;SDS011;54079;44.540;18.784;2023-09-07T09:06:10;5.35;;;4.95;;
55776;SDS011;54079;44.540;18.784;2023-09-07T09:08:47;8.25;;;3.60;;
55776;SDS011;54079;44.540;18.784;2023-09-07T09:11:16;3.90;;;3.60;;
55776;SDS011;54079;44.540;18.784;2023-09-07T09:13:42;4.53;;;4.13;;
55776;SDS011;54079;44.540;18.784;2023-09-07T09:16:09;9.30;;;3.95;;
55776;SDS011;54079;44.540;18.784;2023-09-07T09:18:35;4.63;;;3.38;;
55776;SDS011;54079;44.540;18.784;2023-09-07T09:21:03;4.13;;;3.80;;
55776;SDS011;54079;44.540;18.784;2023-09-07T09:23:33;3.13;;;2.92;;
55776;SDS011;54079;44.540;18.784;2023-09-07T09:26:03;4.45;;;4.05;;
55776;SDS011;54079;44.540;18.784;2023-09-07T09:28:33;5.60;;;4.88;;
55776;SDS011;54079;44.540;18.784;2023-09-07T09:31:00;6.85;;;5.70;;
55776;SDS011;54079;44.540;18.784;2023-09-07T09:33:30;4.93;;;4.10;;
55776;SDS011;54079;44.540;18.784;2023-09-07T09:35:57;4.25;;;3.58;;
55776;SDS011;54079;44.540;18.784;2023-09-07T09:38:23;6.40;;;3.63;;
55776;SDS011;54079;44.540;18.784;2023-09-07T09:40:50;5.05;;;4.25;;
55776;SDS011;54079;44.540;18.784;2023-09-07T09:43:17;5.97;;;3.45;;
55776;SDS011;54079;44.540;18.784;2023-09-07T09:45:46;4.05;;;3.65;;
55776;SDS011;54079;44.540;18.784;2023-09-07T09:48:14;3.40;;;3.10;;
55776;SDS011;54079;44.540;18.784;2023-09-07T09:50:41;3.53;;;3.30;;
55776;SDS011;54079;44.540;18.784;2023-09-07T09:53:08;3.15;;;2.83;;
55776;SDS011;54079;44.540;18.784;2023-09-07T09:55:40;4.10;;;3.67;;
55776;SDS011;54079;44.540;18.784;2023-09-07T09:58:06;4.35;;;3.13;;
55776;SDS011;54079;44.540;18.784;2023-09-07T10:00:32;3.35;;;3.05;;
55776;SDS011;54079;44.540;18.784;2023-09-07T10:03:07;2.78;;;2.40;;
55776;SDS011;54079;44.540;18.784;2023-09-07T10:05:39;3.90;;;3.42;;
55776;SDS011;54079;44.540;18.784;2023-09-07T10:08:09;3.33;;;2.67;;
55776;SDS011;54079;44.540;18.784;2023-09-07T10:10:41;4.55;;;3.20;;
55776;SDS011;54079;44.540;18.784;2023-09-07T10:13:07;3.38;;;3.08;;
55776;SDS011;54079;44.540;18.784;2023-09-07T10:15:33;3.33;;;2.67;;
55776;SDS011;54079;44.540;18.784;2023-09-07T10:20:48;3.10;;;2.85;;
55776;SDS011;54079;44.540;18.784;2023-09-07T10:23:18;3.67;;;3.17;;
55776;SDS011;54079;44.540;18.784;2023-09-07T10:25:51;3.67;;;3.38;;
55776;SDS011;54079;44.540;18.784;2023-09-07T10:28:24;3.35;;;3.05;;
55776;SDS011;54079;44.540;18.784;2023-09-07T10:31:04;3.08;;;2.78;;
55776;SDS011;54079;44.540;18.784;2023-09-07T10:33:40;3.17;;;2.90;;
55776;SDS011;54079;44.540;18.784;2023-09-07T10:36:06;5.95;;;3.05;;
55776;SDS011;54079;44.540;18.784;2023-09-07T10:38:33;3.30;;;3.00;;
55776;SDS011;54079;44.540;18.784;2023-09-07T10:41:00;4.13;;;3.08;;
55776;SDS011;54079;44.540;18.784;2023-09-07T10:43:30;3.17;;;2.83;;
55776;SDS011;54079;44.540;18.784;2023-09-07T10:45:58;3.35;;;3.05;;
55776;SDS011;54079;44.540;18.784;2023-09-07T10:48:26;2.97;;;2.72;;
55776;SDS011;54079;44.540;18.784;2023-09-07T10:50:55;3.83;;;3.08;;
55776;SDS011;54079;44.540;18.784;2023-09-07T10:53:29;3.45;;;3.15;;
55776;SDS011;54079;44.540;18.784;2023-09-07T10:55:57;6.05;;;4.03;;
55776;SDS011;54079;44.540;18.784;2023-09-07T10:58:35;4.00;;;3.55;;
55776;SDS011;54079;44.540;18.784;2023-09-07T11:01:06;4.65;;;3.50;;
55776;SDS011;54079;44.540;18.784;2023-09-07T11:03:32;3.03;;;2.80;;
55776;SDS011;54079;44.540;18.784;2023-09-07T11:06:12;3.40;;;3.10;;
55776;SDS011;54079;44.540;18.784;2023-09-07T11:08:47;8.57;;;4.70;;
55776;SDS011;54079;44.540;18.784;2023-09-07T11:11:13;5.93;;;4.20;;
55776;SDS011;54079;44.540;18.784;2023-09-07T11:13:39;4.35;;;3.95;;
55776;SDS011;54079;44.540;18.784;2023-09-07T11:16:09;4.22;;;3.83;;
55776;SDS011;54079;44.540;18.784;2023-09-07T11:18:35;3.63;;;3.33;;
55776;SDS011;54079;44.540;18.784;2023-09-07T11:21:01;4.82;;;4.07;;
55776;SDS011;54079;44.540;18.784;2023-09-07T11:23:33;4.90;;;4.18;;
55776;SDS011;54079;44.540;18.784;2023-09-07T11:26:05;4.03;;;3.70;;
55776;SDS011;54079;44.540;18.784;2023-09-07T11:28:33;4.07;;;3.53;;
55776;SDS011;54079;44.540;18.784;2023-09-07T11:30:59;4.45;;;3.47;;
55776;SDS011;54079;44.540;18.784;2023-09-07T11:33:26;4.10;;;3.70;;
55776;SDS011;54079;44.540;18.784;2023-09-07T11:35:56;3.15;;;2.90;;
55776;SDS011;54079;44.540;18.784;2023-09-07T11:38:22;5.78;;;4.30;;
55776;SDS011;54079;44.540;18.784;2023-09-07T11:40:48;3.90;;;3.05;;
55776;SDS011;54079;44.540;18.784;2023-09-07T11:43:14;4.45;;;3.53;;
55776;SDS011;54079;44.540;18.784;2023-09-07T11:45:41;6.03;;;3.85;;
55776;SDS011;54079;44.540;18.784;2023-09-07T11:48:09;5.40;;;3.67;;
55776;SDS011;54079;44.540;18.784;2023-09-07T11:50:36;4.85;;;4.35;;
55776;SDS011;54079;44.540;18.784;2023-09-07T11:53:03;3.45;;;3.15;;
55776;SDS011;54079;44.540;18.784;2023-09-07T11:55:29;4.28;;;3.70;;
55776;SDS011;54079;44.540;18.784;2023-09-07T11:57:56;5.93;;;4.18;;
55776;SDS011;54079;44.540;18.784;2023-09-07T12:00:22;7.38;;;4.20;;
55776;SDS011;54079;44.540;18.784;2023-09-07T12:02:48;4.90;;;3.53;;
55776;SDS011;54079;44.540;18.784;2023-09-07T12:05:15;5.38;;;3.58;;
55776;SDS011;54079;44.540;18.784;2023-09-07T12:07:41;3.45;;;3.15;;
55776;SDS011;54079;44.540;18.784;2023-09-07T12:10:10;3.78;;;3.40;;
55776;SDS011;54079;44.540;18.784;2023-09-07T12:12:41;3.30;;;2.60;;
55776;SDS011;54079;44.540;18.784;2023-09-07T12:15:08;5.68;;;3.15;;
55776;SDS011;54079;44.540;18.784;2023-09-07T12:17:36;3.53;;;3.00;;
55776;SDS011;54079;44.540;18.784;2023-09-07T12:20:03;4.47;;;3.60;;
55776;SDS011;54079;44.540;18.784;2023-09-07T12:22:35;3.38;;;3.08;;
55776;SDS011;54079;44.540;18.784;2023-09-07T12:25:03;3.65;;;3.33;;
55776;SDS011;54079;44.540;18.784;2023-09-07T12:27:33;3.00;;;2.70;;
55776;SDS011;54079;44.540;18.784;2023-09-07T12:30:00;4.03;;;2.83;;
55776;SDS011;54079;44.540;18.784;2023-09-07T12:32:27;3.15;;;2.88;;
55776;SDS011;54079;44.540;18.784;2023-09-07T12:34:53;4.90;;;3.90;;
55776;SDS011;54079;44.540;18.784;2023-09-07T12:37:19;3.70;;;3.40;;
55776;SDS011;54079;44.540;18.784;2023-09-07T12:39:48;11.70;;;3.05;;
55776;SDS011;54079;44.540;18.784;2023-09-07T12:42:15;7.90;;;3.38;;
55776;SDS011;54079;44.540;18.784;2023-09-07T12:44:41;3.28;;;2.97;;
55776;SDS011;54079;44.540;18.784;2023-09-07T12:47:07;3.85;;;3.40;;
55776;SDS011;54079;44.540;18.784;2023-09-07T12:49:33;4.95;;;3.15;;
55776;SDS011;54079;44.540;18.784;2023-09-07T12:51:59;4.20;;;3.90;;
55776;SDS011;54079;44.540;18.784;2023-09-07T12:54:25;4.70;;;3.15;;
55776;SDS011;54079;44.540;18.784;2023-09-07T12:56:51;5.32;;;3.53;;
55776;SDS011;54079;44.540;18.784;2023-09-07T12:59:17;3.10;;;2.80;;
55776;SDS011;54079;44.540;18.784;2023-09-07T13:01:44;3.70;;;3.40;;
55776;SDS011;54079;44.540;18.784;2023-09-07T13:04:18;4.97;;;3.55;;
55776;SDS011;54079;44.540;18.784;2023-09-07T13:06:44;3.17;;;2.88;;
55776;SDS011;54079;44.540;18.784;2023-09-07T13:09:10;5.57;;;2.97;;
55776;SDS011;54079;44.540;18.784;2023-09-07T13:11:36;6.75;;;4.68;;
55776;SDS011;54079;44.540;18.784;2023-09-07T13:14:04;4.82;;;3.47;;
55776;SDS011;54079;44.540;18.784;2023-09-07T13:16:30;3.42;;;2.80;;
55776;SDS011;54079;44.540;18.784;2023-09-07T13:18:57;3.63;;;3.33;;
55776;SDS011;54079;44.540;18.784;2023-09-07T13:21:24;3.78;;;3.03;;
55776;SDS011;54079;44.540;18.784;2023-09-07T13:23:50;5.97;;;3.67;;
55776;SDS011;54079;44.540;18.784;2023-09-07T13:26:15;3.85;;;3.08;;
55776;SDS011;54079;44.540;18.784;2023-09-07T13:28:41;4.82;;;3.90;;
55776;SDS011;54079;44.540;18.784;2023-09-07T13:31:07;4.15;;;3.35;;
55776;SDS011;54079;44.540;18.784;2023-09-07T13:33:33;4.95;;;4.13;;
55776;SDS011;54079;44.540;18.784;2023-09-07T13:35:59;4.78;;;3.75;;
55776;SDS011;54079;44.540;18.784;2023-09-07T13:38:26;3.72;;;3.35;;
55776;SDS011;54079;44.540;18.784;2023-09-07T13:40:52;4.72;;;4.10;;
55776;SDS011;54079;44.540;18.784;2023-09-07T13:43:18;3.65;;;3.35;;
55776;SDS011;54079;44.540;18.784;2023-09-07T13:45:44;5.47;;;3.88;;
55776;SDS011;54079;44.540;18.784;2023-09-07T13:48:10;6.22;;;4.07;;
55776;SDS011;54079;44.540;18.784;2023-09-07T13:50:36;3.22;;;2.92;;
55776;SDS011;54079;44.540;18.784;2023-09-07T13:53:02;4.60;;;3.35;;
55776;SDS011;54079;44.540;18.784;2023-09-07T13:55:28;6.30;;;3.67;;
55776;SDS011;54079;44.540;18.784;2023-09-07T13:57:54;6.60;;;3.78;;
55776;SDS011;54079;44.540;18.784;2023-09-07T14:00:20;5.68;;;3.83;;
55776;SDS011;54079;44.540;18.784;2023-09-07T14:02:46;3.38;;;3.17;;
55776;SDS011;54079;44.540;18.784;2023-09-07T14:05:12;3.15;;;2.85;;
55776;SDS011;54079;44.540;18.784;2023-09-07T14:07:38;5.22;;;3.30;;
55776;SDS011;54079;44.540;18.784;2023-09-07T14:10:04;3.78;;;2.63;;
55776;SDS011;54079;44.540;18.784;2023-09-07T14:12:30;3.45;;;3.15;;
55776;SDS011;54079;44.540;18.784;2023-09-07T14:14:56;3.30;;;3.00;;
55776;SDS011;54079;44.540;18.784;2023-09-07T14:17:22;3.00;;;2.70;;
55776;SDS011;54079;44.540;18.784;2023-09-07T14:19:48;4.80;;;3.40;;
55776;SDS011;54079;44.540;18.784;2023-09-07T14:22:14;4.38;;;4.05;;
55776;SDS011;54079;44.540;18.784;2023-09-07T14:24:40;3.05;;;2.80;;
55776;SDS011;54079;44.540;18.784;2023-09-07T14:27:06;2.88;;;2.63;;
55776;SDS011;54079;44.540;18.784;2023-09-07T14:29:34;3.78;;;3.40;;
55776;SDS011;54079;44.540;18.784;2023-09-07T14:32:00;3.38;;;3.00;;
55776;SDS011;54079;44.540;18.784;2023-09-07T14:34:27;3.97;;;2.70;;